Terminal Aerodrome Forecast
Issued by NWS

Home | Current Version | Previous Version | Text Only | Print | Product List | Glossary Off
Versions: 1 2 3 4 5 6 7 8 9 10 11 12 13

000
FTUS43 KTOP 031800 AAA
TAFMHK
TAF AMD
KMHK 031805Z 0318/0418 36011G18KT P6SM SCT030 OVC150
     FM041200 02010KT 5SM -SN BR SCT025 BKN040
     FM041500 02008KT P6SM BKN090=

USA.gov is the U.S. government's official web portal to all federal, state and local government web resources and services.